ZTL Weather Bulletin
Prepared:11/24/2015 11:00 AM by: RW valid for 9 hours
High pressure will dominate the region with VFR conditions under SCT/BKN cirrus clouds spreading east across the airspace. Surface winds will be northeast to south at 3-8kts and frequently calm. Flight Hazards: Ocnl LGT Turbulence FL240-400 over AL/GA and occasional LGT rime icing FL180-280 over AL/GA. Altimeters will remain above 29.92ins. Isolated ceilings below 050 are not expected.

Restricted Area Convection: R2102...None. R3002...None. R3004...None.
FTUS31 KATL 242330
KATL 242328Z 2500/2606 10005KT P6SM FEW150 BKN250
     FM251100 10008KT P6SM SCT025
     FM251400 10010KT P6SM SCT030
     FM251600 09011G16KT P6SM BKN040
     FM252100 08010KT P6SM SCT045
Remark: NONE.
FTUS42 KGSP 242354
KCLT 242354Z 2500/2524 15003KT P6SM FEW150 BKN250
     FM251700 07006KT P6SM BKN200=

Remark: NONE.
12-18 Hour Forecast Map
Weather Map
Convective Gate Forecast
Convective Gate Forecast
Icing Gate Forecast Icing Gate Forecast

USA.gov is the U.S. government's official web portal to all federal, state and local government web resources and services.